Nucla, Colorado
Current Conditions -  °F | °C
As of 11:35 PM on Friday 28 Nov 2014 (Local Time) from KAIB Reporting Station
Clear Clear  
Wind Chill: 28°   Ceiling: Unl
Heat Index: 36°   Visibility: 10mi
Dew Point: 14°   Wind: 12mph
Humidity: 41%   Direction: 100°E
Pressure: 30.04"   Gusts: NA
Location:  38.27°N, 108.55°W
Report Text: KAIB 290635Z AUTO 10010KT 10SM CLR 02/M10 A3004 RMK AO2
Loading
Personal Weather Stations






























Interactive Weather Map New forecast layout! Learn more

10-Day Weather Forecast

Advertisements
Track Severe Weather on mobile